Time;durP1;ratioP1;P1;durP2;ratioP2;P2;SDS_P1;SDS_P2;PMS_P1;PMS_P2;Temp;Humidity;BMP_temperature;BMP_pressure;BME280_temperature;BME280_humidity;BME280_pressure;Samples;Min_cycle;Max_cycle;Signal;HPM_P1;HPM_P2
2022/04/12 00:00:07;;;;;;;6.57;5.60;;;;;;;7.59;55.85;100211.94;5068264;28;20448;-67
2022/04/12 00:02:34;;;;;;;5.63;5.03;;;;;;;7.66;55.78;100210.47;5080077;28;20519;-68
2022/04/12 00:05:00;;;;;;;8.60;5.53;;;;;;;7.74;55.71;100208.00;5079304;28;20452;-67
2022/04/12 00:07:27;;;;;;;13.30;5.53;;;;;;;7.69;55.87;100200.41;5079152;28;20495;-67
2022/04/12 00:09:54;;;;;;;7.33;5.47;;;;;;;7.67;55.83;100191.72;5070537;28;20453;-67
2022/04/12 00:12:22;;;;;;;6.77;6.07;;;;;;;7.65;55.97;100188.31;5060297;28;20511;-67
2022/04/12 00:14:48;;;;;;;8.33;5.70;;;;;;;7.58;56.23;100184.44;5060948;28;20536;-67
2022/04/12 00:19:59;;;;;;;7.93;5.50;;;;;;;7.45;56.26;100181.94;5069550;28;20458;-67
2022/04/12 00:22:26;;;;;;;7.00;4.80;;;;;;;7.47;56.64;100179.16;5066112;28;20503;-67
2022/04/12 00:24:54;;;;;;;8.10;6.30;;;;;;;7.37;56.76;100172.88;5060338;28;20471;-67
2022/04/12 00:27:22;;;;;;;7.37;5.70;;;;;;;7.45;56.61;100176.63;5072010;28;20507;-67
2022/04/12 00:29:48;;;;;;;6.30;5.33;;;;;;;7.52;56.47;100174.31;5079746;28;20491;-67
2022/04/12 00:32:15;;;;;;;6.77;5.13;;;;;;;7.35;56.85;100178.31;5078664;28;20494;-67
2022/04/12 00:34:42;;;;;;;7.70;4.93;;;;;;;7.37;56.67;100172.88;5078812;28;20451;-67
2022/04/12 00:37:08;;;;;;;8.70;5.70;;;;;;;7.31;56.79;100172.41;5079289;28;20572;-67
2022/04/12 00:39:37;;;;;;;9.20;5.43;;;;;;;7.32;57.05;100166.09;5067428;28;20548;-68
2022/04/12 00:42:04;;;;;;;7.77;5.47;;;;;;;7.45;56.37;100168.63;5071940;28;20480;-67
2022/04/12 00:44:32;;;;;;;8.33;5.53;;;;;;;7.42;56.47;100157.41;5080079;28;20428;-67
2022/04/12 00:46:58;;;;;;;9.03;5.57;;;;;;;7.45;56.15;100162.47;5078463;28;20559;-67
2022/04/12 00:49:25;;;;;;;7.50;5.70;;;;;;;7.43;56.54;100162.59;5078814;28;20516;-67
2022/04/12 00:51:52;;;;;;;8.80;5.40;;;;;;;7.42;56.47;100158.25;5078446;28;20535;-67
2022/04/12 00:54:20;;;;;;;9.40;5.97;;;;;;;7.45;56.56;100151.84;5080093;28;20509;-67
2022/04/12 00:56:47;;;;;;;8.77;6.10;;;;;;;7.43;56.39;100153.75;5078533;28;20487;-67
2022/04/12 00:59:16;;;;;;;11.20;5.63;;;;;;;7.42;56.48;100152.91;5079647;28;20527;-67
2022/04/12 01:01:44;;;;;;;10.33;6.80;;;;;;;7.47;56.21;100156.06;5078601;28;20472;-67
2022/04/12 01:04:11;;;;;;;7.50;5.57;;;;;;;7.48;56.51;100152.44;5078933;28;20486;-67
2022/04/12 01:06:38;;;;;;;9.60;6.50;;;;;;;7.48;56.29;100152.44;5078471;28;20472;-68
2022/04/12 01:09:05;;;;;;;9.70;5.70;;;;;;;7.49;56.47;100148.78;5071549;28;20503;-68
2022/04/12 01:11:32;;;;;;;8.77;6.10;;;;;;;7.45;56.23;100146.53;5072751;28;20464;-67
2022/04/12 01:13:59;;;;;;;8.03;6.07;;;;;;;7.49;56.34;100146.13;5079606;28;20446;-68
2022/04/12 01:16:26;;;;;;;10.40;6.43;;;;;;;7.49;56.37;100139.97;5078520;28;20552;-68
2022/04/12 01:18:54;;;;;;;16.00;6.70;;;;;;;7.46;56.42;100127.75;5078356;28;20451;-67
2022/04/12 01:21:21;;;;;;;11.40;6.33;;;;;;;7.49;55.94;100124.84;5077994;28;20487;-67
2022/04/12 01:24:02;;;;;;;8.50;6.03;;;;;;;7.37;56.53;100125.84;5079663;28;20452;-67
2022/04/12 01:26:29;;;;;;;7.23;5.20;;;;;;;7.44;56.29;100118.22;5071589;28;20469;-68
2022/04/12 01:28:56;;;;;;;11.13;6.67;;;;;;;7.40;56.63;100111.47;5059484;28;20929;-68
2022/04/12 01:31:22;;;;;;;9.07;6.70;;;;;;;7.44;56.74;100116.41;5077115;28;20497;-68
2022/04/12 01:33:49;;;;;;;10.20;6.93;;;;;;;7.38;56.86;100110.72;5078540;28;20436;-68
2022/04/12 01:36:16;;;;;;;10.37;6.47;;;;;;;7.41;56.69;100116.63;5077984;28;20518;-68
2022/04/12 01:38:42;;;;;;;11.53;6.43;;;;;;;7.41;56.66;100115.81;5075899;28;20448;-68
2022/04/12 01:41:10;;;;;;;10.73;6.77;;;;;;;7.40;56.44;100119.44;5078244;28;20474;-68
2022/04/12 01:43:37;;;;;;;7.77;6.10;;;;;;;7.47;55.67;100110.84;5079379;28;20510;-68
2022/04/12 01:46:04;;;;;;;11.00;6.90;;;;;;;7.58;55.70;100111.78;5078614;28;20484;-68
2022/04/12 01:48:31;;;;;;;9.97;7.17;;;;;;;7.64;55.05;100108.63;5061103;28;20457;-67
2022/04/12 01:50:57;;;;;;;6.53;5.03;;;;;;;7.61;55.49;100103.56;5045338;28;20475;-67
2022/04/12 01:53:24;;;;;;;7.90;6.50;;;;;;;7.57;55.97;100105.63;5079248;28;20456;-67
2022/04/12 01:55:51;;;;;;;9.87;7.23;;;;;;;7.57;55.23;100094.97;5078166;28;20467;-67
2022/04/12 01:58:19;;;;;;;8.10;5.97;;;;;;;7.64;54.91;100095.34;5081083;28;20638;-66
2022/04/12 02:00:45;;;;;;;9.40;6.53;;;;;;;7.68;55.03;100091.44;5076504;28;20480;-69
2022/04/12 02:03:13;;;;;;;10.73;6.67;;;;;;;7.72;54.62;100092.88;5078640;28;20440;-68
2022/04/12 02:05:40;;;;;;;9.23;6.43;;;;;;;7.76;54.81;100096.13;5081575;28;20471;-68
2022/04/12 02:08:08;;;;;;;7.83;5.77;;;;;;;7.71;54.18;100086.72;5082326;28;20456;-68
2022/04/12 02:10:35;;;;;;;9.77;6.33;;;;;;;7.80;54.28;100093.09;5080485;28;20478;-68
2022/04/12 02:13:01;;;;;;;10.73;6.13;;;;;;;7.75;54.26;100092.63;5082306;28;20440;-68
2022/04/12 02:15:30;;;;;;;9.00;6.37;;;;;;;7.85;53.85;100082.91;5081943;28;20486;-68
2022/04/12 02:17:56;;;;;;;9.67;6.03;;;;;;;7.85;53.42;100088.22;5082096;28;20552;-69
2022/04/12 02:20:26;;;;;;;10.07;6.50;;;;;;;7.77;53.64;100089.84;5080322;28;20515;-69
2022/04/12 02:22:52;;;;;;;9.77;6.53;;;;;;;7.79;53.51;100088.72;5082350;28;20474;-69
2022/04/12 02:25:19;;;;;;;9.40;6.50;;;;;;;7.73;53.44;100090.09;5081696;28;20451;-68
2022/04/12 02:27:46;;;;;;;9.23;6.20;;;;;;;7.80;53.38;100090.44;5082031;28;20452;-68
2022/04/12 02:30:13;;;;;;;10.63;6.10;;;;;;;7.78;53.31;100091.50;5081049;28;20477;-68
2022/04/12 02:32:42;;;;;;;8.80;6.13;;;;;;;7.78;53.24;100097.69;5062196;28;20449;-69
2022/04/12 02:35:09;;;;;;;7.90;6.40;;;;;;;7.77;53.01;100096.00;5061377;28;20988;-69
2022/04/12 02:37:36;;;;;;;9.70;6.47;;;;;;;7.86;52.97;100094.38;5080944;28;20483;-69
2022/04/12 02:40:03;;;;;;;9.43;6.93;;;;;;;7.85;52.99;100088.22;5081201;28;20834;-68
2022/04/12 02:42:30;;;;;;;10.20;7.90;;;;;;;7.83;53.00;100079.53;5080987;28;20495;-67
2022/04/12 02:44:57;;;;;;;10.97;7.40;;;;;;;7.83;53.10;100090.19;5082169;28;20497;-67
2022/04/12 02:47:25;;;;;;;11.50;7.47;;;;;;;7.73;54.25;100089.25;5072866;28;20480;-67
2022/04/12 02:49:53;;;;;;;8.83;6.70;;;;;;;7.73;53.44;100087.41;5060884;28;20532;-67
2022/04/12 02:52:20;;;;;;;7.57;5.93;;;;;;;7.81;53.21;100094.78;5077970;28;20533;-67
2022/04/12 02:54:47;;;;;;;11.57;7.10;;;;;;;7.85;53.41;100085.56;5081969;28;20436;-68
2022/04/12 02:57:14;;;;;;;13.13;7.03;;;;;;;7.82;53.29;100071.66;5080946;28;20518;-66
2022/04/12 02:59:41;;;;;;;8.20;6.20;;;;;;;7.82;53.52;100069.00;5081438;28;20480;-67
2022/04/12 03:02:08;;;;;;;10.00;5.90;;;;;;;7.77;53.28;100073.88;5073294;28;20476;-67
2022/04/12 03:04:35;;;;;;;11.63;7.00;;;;;;;7.70;53.86;100073.53;5080911;28;20534;-67
2022/04/12 03:07:03;;;;;;;9.30;6.57;;;;;;;7.63;53.64;100077.66;5080672;28;20857;-67
2022/04/12 03:09:30;;;;;;;11.63;6.27;;;;;;;7.64;53.89;100074.03;5079609;28;20505;-67
2022/04/12 03:11:57;;;;;;;9.23;6.50;;;;;;;7.58;54.21;100070.06;5079956;28;20502;-67
2022/04/12 03:14:23;;;;;;;11.40;8.83;;;;;;;7.51;54.50;100069.69;5081592;28;20466;-67
2022/04/12 03:16:50;;;;;;;8.50;6.37;;;;;;;7.45;54.30;100067.56;5079585;28;20521;-67
2022/04/12 03:19:16;;;;;;;10.33;6.63;;;;;;;7.45;54.45;100077.38;5080036;28;20476;-67
2022/04/12 03:21:43;;;;;;;10.80;6.97;;;;;;;7.47;54.01;100078.91;5079501;28;20475;-67
2022/04/12 03:24:11;;;;;;;10.63;6.37;;;;;;;7.54;54.34;100082.75;5081274;28;20428;-68
2022/04/12 03:26:38;;;;;;;12.10;7.20;;;;;;;7.46;54.35;100084.34;5080065;28;20460;-68
2022/04/12 03:29:04;;;;;;;11.43;7.27;;;;;;;7.35;54.31;100085.22;5079880;28;20465;-68
2022/04/12 03:31:31;;;;;;;8.80;6.30;;;;;;;7.38;54.46;100082.34;5075514;28;20482;-68
2022/04/12 03:33:58;;;;;;;11.33;6.23;;;;;;;7.44;53.93;100091.63;5080020;28;20440;-69
2022/04/12 03:36:25;;;;;;;10.00;6.23;;;;;;;7.42;54.38;100081.09;5080219;28;21075;-69
2022/04/12 03:38:52;;;;;;;9.23;6.13;;;;;;;7.46;54.03;100079.03;5080400;28;20989;-68
2022/04/12 03:41:23;;;;;;;10.33;6.80;;;;;;;7.40;54.12;100069.75;5079592;28;21045;-68
2022/04/12 03:43:50;;;;;;;9.03;6.43;;;;;;;7.31;54.66;100068.69;5080514;28;20451;-68
2022/04/12 03:46:16;;;;;;;10.53;6.30;;;;;;;7.37;54.37;100072.66;5079374;28;20486;-67
2022/04/12 03:48:43;;;;;;;11.70;6.87;;;;;;;7.25;54.87;100076.31;5079849;28;20482;-67
2022/04/12 03:51:10;;;;;;;9.27;6.50;;;;;;;7.29;54.88;100065.31;5079818;28;20482;-67
2022/04/12 03:53:37;;;;;;;10.90;6.40;;;;;;;7.33;54.49;100065.91;5080687;28;20960;-66
2022/04/12 03:56:07;;;;;;;10.13;6.10;;;;;;;7.30;54.53;100068.81;5080035;28;20480;-67
2022/04/12 03:58:35;;;;;;;7.40;6.10;;;;;;;7.21;54.89;100080.19;5080309;28;20545;-67
2022/04/12 04:01:02;;;;;;;8.57;6.20;;;;;;;7.23;54.63;100078.25;5075253;28;20502;-67
2022/04/12 04:03:29;;;;;;;8.57;6.40;;;;;;;7.19;54.98;100068.81;5080359;28;20444;-67
2022/04/12 04:05:56;;;;;;;8.87;6.00;;;;;;;7.15;55.39;100068.22;5079134;28;20503;-67
2022/04/12 04:08:23;;;;;;;9.33;6.40;;;;;;;7.09;55.33;100072.22;5073123;28;20449;-67
2022/04/12 04:10:50;;;;;;;7.87;6.00;;;;;;;7.05;55.31;100076.09;5066783;28;20479;-67
2022/04/12 04:13:17;;;;;;;9.27;6.70;;;;;;;7.08;55.53;100064.34;5080279;28;20903;-67
2022/04/12 04:15:46;;;;;;;10.13;7.10;;;;;;;6.95;56.03;100070.66;5070303;28;21142;-67
2022/04/12 04:18:13;;;;;;;8.63;6.60;;;;;;;6.94;56.21;100060.13;5070188;28;20598;-68
2022/04/12 04:20:39;;;;;;;9.33;6.13;;;;;;;6.84;56.52;100051.19;5065099;28;20510;-67
2022/04/12 04:23:06;;;;;;;8.30;6.20;;;;;;;6.76;57.06;100047.34;5055171;28;20581;-67
2022/04/12 04:25:33;;;;;;;9.00;6.07;;;;;;;6.72;57.20;100040.59;5062854;28;20473;-67
2022/04/12 04:28:00;;;;;;;10.90;7.13;;;;;;;6.72;57.17;100034.44;5064427;28;20513;-67
2022/04/12 04:30:27;;;;;;;9.23;6.10;;;;;;;6.69;57.44;100026.72;5075814;28;20475;-68
2022/04/12 04:32:55;;;;;;;9.20;7.30;;;;;;;6.67;57.54;100039.28;5072685;28;20440;-67
2022/04/12 04:35:21;;;;;;;9.50;6.67;;;;;;;6.67;57.59;100031.31;5071221;28;20461;-68
2022/04/12 04:37:50;;;;;;;9.07;7.00;;;;;;;6.70;57.66;100028.38;5064631;28;20499;-67
2022/04/12 04:40:19;;;;;;;9.13;6.40;;;;;;;6.60;57.55;100021.16;5058169;28;20809;-67
2022/04/12 04:42:45;;;;;;;9.97;6.70;;;;;;;6.65;57.58;100028.78;5058681;28;20756;-67
2022/04/12 04:45:12;;;;;;;8.70;6.47;;;;;;;6.76;57.21;100028.75;5057238;28;20573;-67
2022/04/12 04:47:49;;;;;;;6.27;5.57;;;;;;;6.75;57.56;100036.84;5072261;28;20444;-67
2022/04/12 04:50:18;;;;;;;8.87;6.70;;;;;;;6.86;57.24;100033.34;5074887;28;20458;-66
2022/04/12 04:52:44;;;;;;;9.93;6.40;;;;;;;6.87;57.42;100029.72;5075088;28;20448;-67
2022/04/12 04:55:11;;;;;;;11.83;6.93;;;;;;;6.98;56.48;100035.03;5064733;28;20441;-67
2022/04/12 04:57:39;;;;;;;10.23;6.33;;;;;;;7.01;56.84;100034.75;5071879;28;20483;-67
2022/04/12 05:00:06;;;;;;;8.57;6.60;;;;;;;7.12;56.45;100037.41;5077134;28;20448;-67
2022/04/12 05:02:33;;;;;;;10.33;6.90;;;;;;;7.18;56.00;100025.44;5078268;28;20787;-67
2022/04/12 05:05:00;;;;;;;7.90;5.83;;;;;;;7.18;55.85;100019.28;5078227;28;20478;-67
2022/04/12 05:07:28;;;;;;;8.87;6.53;;;;;;;7.47;55.61;100015.06;5075780;28;20490;-67
2022/04/12 05:09:55;;;;;;;8.53;6.17;;;;;;;7.76;54.26;100024.25;5078801;28;20456;-67
2022/04/12 05:12:21;;;;;;;14.03;6.40;;;;;;;7.88;53.69;100012.59;5078024;28;20495;-66
2022/04/12 05:14:48;;;;;;;8.33;6.10;;;;;;;8.32;52.80;100031.13;5079137;28;20443;-67
2022/04/12 05:17:23;;;;;;;8.77;5.97;;;;;;;8.53;52.24;100026.63;5077919;28;20479;-66
2022/04/12 05:19:50;;;;;;;9.47;6.10;;;;;;;8.50;51.71;100024.22;5063060;28;20488;-68
2022/04/12 05:22:17;;;;;;;8.70;6.43;;;;;;;8.46;52.83;100017.47;5063078;28;20484;-69
2022/04/12 05:24:45;;;;;;;8.80;6.20;;;;;;;8.53;52.44;100031.94;5059289;28;20433;-66
2022/04/12 05:27:11;;;;;;;9.83;6.37;;;;;;;8.62;51.87;100028.47;5069405;28;20487;-66
2022/04/12 05:29:38;;;;;;;12.20;6.33;;;;;;;8.49;51.95;100041.19;5076686;28;20539;-66
2022/04/12 05:32:06;;;;;;;9.20;6.40;;;;;;;8.43;52.10;100047.03;5078182;28;20479;-68
2022/04/12 05:34:33;;;;;;;9.20;6.60;;;;;;;8.44;51.75;100044.25;5081923;28;20455;-67
2022/04/12 05:36:59;;;;;;;8.60;5.77;;;;;;;8.50;52.19;100042.88;5068663;28;20481;-66
2022/04/12 05:39:26;;;;;;;10.63;6.60;;;;;;;8.67;52.32;100041.41;5069116;28;20509;-66
2022/04/12 05:41:54;;;;;;;9.40;6.50;;;;;;;8.74;51.61;100057.72;5080767;28;20559;-67
2022/04/12 05:44:21;;;;;;;8.13;6.70;;;;;;;8.95;51.66;100055.81;5081140;28;20448;-66
2022/04/12 05:46:47;;;;;;;10.23;5.80;;;;;;;9.15;51.30;100046.06;5081804;28;20472;-67
2022/04/12 05:49:14;;;;;;;9.87;6.40;;;;;;;9.41;50.07;100051.75;5081428;28;20453;-66
2022/04/12 05:51:41;;;;;;;7.50;5.93;;;;;;;9.72;49.28;100058.78;5078483;28;20502;-67
2022/04/12 05:54:08;;;;;;;7.50;5.33;;;;;;;9.73;48.99;100063.16;5061759;28;20859;-67
2022/04/12 05:56:35;;;;;;;7.70;5.17;;;;;;;10.32;48.11;100061.31;5061764;28;20492;-67
2022/04/12 05:59:03;;;;;;;7.87;5.80;;;;;;;10.78;46.82;100069.47;5061911;28;21010;-67
2022/04/12 06:01:30;;;;;;;6.30;5.53;;;;;;;11.46;45.48;100069.16;5061219;28;20469;-67
2022/04/12 06:03:57;;;;;;;13.90;6.63;;;;;;;11.43;45.16;100080.16;5061930;28;20433;-67
2022/04/12 06:06:23;;;;;;;10.07;6.33;;;;;;;11.27;44.82;100078.97;5060525;28;20504;-66
2022/04/12 06:08:50;;;;;;;7.40;5.37;;;;;;;11.78;44.48;100073.16;5062148;28;20453;-67
2022/04/12 06:11:17;;;;;;;8.23;5.90;;;;;;;11.49;44.63;100079.53;5060743;28;20484;-67
2022/04/12 06:13:44;;;;;;;8.07;6.10;;;;;;;11.18;45.51;100077.22;5061939;28;20452;-67
2022/04/12 06:16:12;;;;;;;10.03;6.20;;;;;;;11.51;45.32;100080.25;5061489;28;20500;-67
2022/04/12 06:18:39;;;;;;;8.77;6.03;;;;;;;11.05;46.32;100090.91;5061158;28;20485;-67
2022/04/12 06:21:05;;;;;;;8.63;5.83;;;;;;;11.61;45.25;100086.41;5060022;28;20995;-67
2022/04/12 06:23:33;;;;;;;10.47;6.23;;;;;;;12.16;44.44;100082.72;5062444;28;20843;-67
2022/04/12 06:25:59;;;;;;;8.60;5.80;;;;;;;12.51;42.62;100089.03;5061581;28;20901;-67
2022/04/12 06:28:26;;;;;;;7.40;5.67;;;;;;;12.88;42.05;100087.06;5061058;28;21070;-67
2022/04/12 06:30:54;;;;;;;8.83;5.70;;;;;;;13.29;40.38;100095.31;5060930;28;20473;-67
2022/04/12 06:33:22;;;;;;;7.60;5.87;;;;;;;13.28;40.56;100085.56;5061725;28;20426;-68
2022/04/12 06:35:48;;;;;;;8.37;5.50;;;;;;;14.28;39.52;100072.97;5059984;28;20468;-68
2022/04/12 06:38:15;;;;;;;9.00;6.33;;;;;;;15.11;37.17;100076.38;5061267;28;20489;-67
2022/04/12 06:40:44;;;;;;;7.67;6.10;;;;;;;14.82;37.15;100079.66;5060721;28;20518;-67
2022/04/12 06:43:12;;;;;;;8.47;5.83;;;;;;;15.38;36.27;100090.38;5060338;28;20519;-67
2022/04/12 06:45:38;;;;;;;9.67;5.60;;;;;;;16.31;34.20;100080.53;5052811;28;21018;-68
2022/04/12 06:48:06;;;;;;;7.40;5.50;;;;;;;15.94;35.13;100074.91;5041001;28;20972;-68
2022/04/12 06:50:34;;;;;;;16.73;6.77;;;;;;;16.14;35.74;100077.97;5039500;28;20481;-67
2022/04/12 06:53:03;;;;;;;7.20;5.80;;;;;;;17.10;33.44;100080.91;5041980;28;20436;-67
2022/04/12 06:55:30;;;;;;;8.97;6.40;;;;;;;17.30;32.62;100074.91;5040770;28;20821;-67
2022/04/12 06:57:57;;;;;;;7.60;5.93;;;;;;;16.70;33.71;100074.06;5040517;28;20473;-67
2022/04/12 07:00:25;;;;;;;8.57;5.77;;;;;;;15.78;35.10;100070.50;5040203;28;20442;-68
2022/04/12 07:02:52;;;;;;;7.73;6.10;;;;;;;15.71;35.28;100074.88;5041337;28;20529;-67
2022/04/12 07:05:18;;;;;;;8.73;5.57;;;;;;;15.78;35.30;100065.09;5039772;28;20454;-68
2022/04/12 07:07:46;;;;;;;7.63;6.07;;;;;;;15.36;36.95;100078.94;5041199;28;20479;-67
2022/04/12 07:10:14;;;;;;;7.63;6.27;;;;;;;15.66;36.34;100076.41;5040114;28;20480;-66
2022/04/12 07:12:41;;;;;;;7.73;6.13;;;;;;;15.16;36.75;100090.16;5040434;28;20438;-67
2022/04/12 07:15:09;;;;;;;7.00;5.80;;;;;;;15.41;37.04;100079.25;5040325;28;20457;-67
2022/04/12 07:17:36;;;;;;;9.60;5.80;;;;;;;15.21;37.65;100077.00;5040490;28;20792;-67
2022/04/12 07:20:04;;;;;;;6.37;5.33;;;;;;;15.69;36.77;100076.06;5038318;28;20762;-67
2022/04/12 07:22:34;;;;;;;8.70;6.20;;;;;;;15.47;36.47;100077.69;5040121;28;20473;-67
2022/04/12 07:25:02;;;;;;;7.53;5.10;;;;;;;15.23;36.80;100076.81;5041031;28;20476;-67
2022/04/12 07:27:33;;;;;;;7.90;5.97;;;;;;;14.93;37.91;100082.00;5039346;28;20470;-67
2022/04/12 07:29:59;;;;;;;7.77;5.87;;;;;;;14.82;38.40;100093.13;5041009;28;20484;-67
2022/04/12 07:32:26;;;;;;;7.70;5.60;;;;;;;15.52;37.61;100100.44;5045089;28;20511;-67
2022/04/12 07:34:53;;;;;;;13.93;6.60;;;;;;;16.90;35.15;100099.53;5059666;28;20448;-67
2022/04/12 07:37:20;;;;;;;9.53;6.03;;;;;;;17.95;32.76;100092.13;5039415;28;20562;-68
2022/04/12 07:39:46;;;;;;;7.40;5.80;;;;;;;17.93;32.28;100093.31;5040170;28;20516;-67
2022/04/12 07:42:15;;;;;;;9.17;6.27;;;;;;;17.97;32.52;100091.94;5039314;28;20477;-68
2022/04/12 07:44:42;;;;;;;7.30;5.83;;;;;;;17.77;32.77;100097.09;5040284;28;20454;-67
2022/04/12 07:47:09;;;;;;;7.87;6.00;;;;;;;16.49;33.10;100094.53;5059610;28;20469;-67
2022/04/12 07:49:35;;;;;;;7.73;5.90;;;;;;;16.49;34.35;100099.94;5059138;28;20449;-66
2022/04/12 07:52:02;;;;;;;8.17;5.90;;;;;;;16.88;34.46;100101.59;5059547;28;20494;-67
2022/04/12 07:54:29;;;;;;;9.43;5.63;;;;;;;17.53;33.15;100093.69;5059563;28;20433;-67
2022/04/12 07:56:55;;;;;;;7.80;5.43;;;;;;;17.38;33.16;100079.41;5058310;28;20517;-67
2022/04/12 07:59:24;;;;;;;9.53;5.90;;;;;;;17.92;33.21;100078.16;5059790;28;21074;-67
2022/04/12 08:01:50;;;;;;;7.17;5.90;;;;;;;18.67;31.64;100076.69;5059296;28;20480;-67
2022/04/12 08:04:17;;;;;;;7.53;5.87;;;;;;;17.56;32.66;100071.69;5058725;28;20425;-67
2022/04/12 08:06:43;;;;;;;9.30;6.10;;;;;;;17.29;33.31;100074.09;5044476;28;20807;-67
2022/04/12 08:09:10;;;;;;;8.73;5.97;;;;;;;18.16;33.04;100069.63;5040385;28;20500;-67
2022/04/12 08:11:37;;;;;;;9.47;6.00;;;;;;;17.96;33.31;100069.44;5038513;28;20970;-67
2022/04/12 08:14:04;;;;;;;6.73;5.50;;;;;;;18.74;31.88;100068.59;5039910;28;20442;-67
2022/04/12 08:16:32;;;;;;;6.97;5.40;;;;;;;19.38;31.69;100062.09;5039918;28;20845;-67
2022/04/12 08:18:58;;;;;;;6.70;5.77;;;;;;;19.90;29.81;100060.56;5038032;28;20485;-67
2022/04/12 08:21:32;;;;;;;7.40;5.77;;;;;;;21.08;28.68;100069.91;5054784;28;20491;-67
2022/04/12 08:23:59;;;;;;;6.83;5.57;;;;;;;20.92;27.68;100063.06;5059784;28;20444;-67
2022/04/12 08:26:26;;;;;;;7.37;5.27;;;;;;;20.12;29.76;100076.69;5059167;28;20534;-67
2022/04/12 08:28:52;;;;;;;7.67;6.57;;;;;;;19.94;29.98;100061.00;5059612;28;20449;-67
2022/04/12 08:31:19;;;;;;;6.33;5.43;;;;;;;21.50;28.37;100075.84;5058828;28;21011;-68
2022/04/12 08:33:47;;;;;;;7.50;5.20;;;;;;;20.66;28.88;100062.06;5058659;28;20437;-67
2022/04/12 08:36:16;;;;;;;7.63;5.40;;;;;;;21.69;27.71;100067.78;5046348;28;20481;-67
2022/04/12 08:38:44;;;;;;;9.70;5.87;;;;;;;22.43;27.42;100068.13;5041179;28;20574;-67
2022/04/12 08:41:11;;;;;;;7.17;5.77;;;;;;;23.62;25.28;100071.41;5058148;28;20576;-68
2022/04/12 08:43:38;;;;;;;7.77;5.47;;;;;;;22.53;26.19;100063.00;5059436;28;20769;-67
2022/04/12 08:46:07;;;;;;;7.13;6.20;;;;;;;22.72;26.62;100069.31;5058910;28;20542;-67
2022/04/12 08:48:33;;;;;;;8.80;6.00;;;;;;;21.08;27.79;100069.91;5058823;28;20516;-67
2022/04/12 08:51:02;;;;;;;8.80;6.63;;;;;;;20.24;29.55;100066.88;5057063;28;20542;-67
2022/04/12 08:53:29;;;;;;;9.83;5.53;;;;;;;20.90;29.39;100065.16;5052837;28;20519;-67
2022/04/12 08:55:56;;;;;;;10.03;7.00;;;;;;;21.05;28.69;100065.72;5038082;28;20507;-67
2022/04/12 08:58:23;;;;;;;9.90;6.60;;;;;;;21.58;28.14;100062.00;5039339;28;20496;-67
2022/04/12 09:00:50;;;;;;;7.30;6.20;;;;;;;21.96;26.83;100068.44;5038489;28;20535;-68
2022/04/12 09:03:17;;;;;;;8.23;6.40;;;;;;;21.84;26.73;100046.56;5038448;28;21016;-67
2022/04/12 09:05:44;;;;;;;6.77;6.07;;;;;;;20.98;28.51;100056.75;5045775;28;20465;-67
2022/04/12 09:08:30;;;;;;;8.37;5.80;;;;;;;21.53;27.31;100053.66;5063467;28;20441;-68
2022/04/12 09:10:59;;;;;;;7.43;6.30;;;;;;;21.91;26.92;100051.97;5061265;28;20540;-68
2022/04/12 09:13:26;;;;;;;8.07;6.47;;;;;;;22.04;27.63;100045.59;5063509;28;20451;-68
2022/04/12 09:15:53;;;;;;;10.17;6.40;;;;;;;21.88;27.13;100045.06;5062624;28;20500;-67
2022/04/12 09:18:36;;;;;;;8.33;6.50;;;;;;;23.03;26.94;100045.72;5060636;28;20475;-68
2022/04/12 09:21:14;;;;;;;9.50;7.30;;;;;;;23.29;26.44;100037.22;5021388;28;20550;-68
2022/04/12 09:23:47;;;;;;;9.60;6.00;;;;;;;23.72;25.19;100029.94;5023551;28;20465;-67
2022/04/12 09:26:24;;;;;;;12.07;6.60;;;;;;;21.55;27.20;100035.22;5021830;28;20497;-68
2022/04/12 09:28:51;;;;;;;8.33;6.50;;;;;;;21.35;28.22;100032.59;5051380;28;20487;-67
2022/04/12 09:31:19;;;;;;;8.07;6.17;;;;;;;21.45;28.83;100032.09;5062044;28;21018;-67
2022/04/12 09:33:47;;;;;;;9.50;6.27;;;;;;;22.06;28.09;100021.69;5062137;28;21292;-67
2022/04/12 09:36:14;;;;;;;7.67;6.07;;;;;;;22.83;27.35;100024.13;5062368;28;20471;-68
2022/04/12 09:38:42;;;;;;;9.60;6.37;;;;;;;22.17;26.63;100023.69;5062419;28;20445;-67
2022/04/12 09:41:15;;;;;;;12.90;6.80;;;;;;;23.16;26.85;100018.31;5061142;28;20494;-68
2022/04/12 09:43:50;;;;;;;10.20;7.17;;;;;;;23.03;27.59;100013.81;5062507;28;20487;-68
2022/04/12 09:46:17;;;;;;;7.17;6.20;;;;;;;24.36;25.12;100010.25;5062143;28;20536;-67
2022/04/12 09:48:47;;;;;;;10.30;7.00;;;;;;;23.63;25.40;100017.69;5061399;28;20498;-68
2022/04/12 09:51:14;;;;;;;10.80;7.90;;;;;;;23.75;25.63;100004.91;5061915;28;20472;-68
2022/04/12 09:53:42;;;;;;;9.00;5.93;;;;;;;24.68;24.50;100009.88;5062986;28;20512;-67
2022/04/12 09:56:19;;;;;;;8.40;6.40;;;;;;;23.01;26.01;100004.22;5061296;28;20480;-68
2022/04/12 09:58:47;;;;;;;12.30;7.73;;;;;;;24.35;25.77;99998.47;5061391;28;20452;-68
2022/04/12 10:01:14;;;;;;;10.20;7.40;;;;;;;23.10;25.99;100000.13;5061267;28;20539;-68
2022/04/12 10:03:44;;;;;;;10.77;7.40;;;;;;;23.58;26.57;99998.44;5061885;28;20437;-67
2022/04/12 10:06:13;;;;;;;8.80;6.97;;;;;;;24.82;24.97;99994.88;5061486;28;20526;-67
2022/04/12 10:08:40;;;;;;;10.20;7.27;;;;;;;23.85;25.65;99982.50;5061747;28;20555;-68
2022/04/12 10:11:07;;;;;;;9.93;7.10;;;;;;;23.35;25.71;99977.34;5060191;28;20499;-67
2022/04/12 10:13:36;;;;;;;10.33;6.50;;;;;;;24.37;25.63;99979.94;5061956;28;21069;-68
2022/04/12 10:16:02;;;;;;;11.30;7.87;;;;;;;24.45;24.76;99984.22;5061362;28;20507;-68
2022/04/12 10:18:29;;;;;;;10.13;6.53;;;;;;;24.10;24.59;99978.75;5056972;28;21436;-67
2022/04/12 10:20:57;;;;;;;9.00;6.87;;;;;;;24.40;24.18;99984.09;5040456;28;20527;-67
2022/04/12 10:23:26;;;;;;;7.87;6.10;;;;;;;24.31;24.55;99983.63;5042163;28;20925;-67
2022/04/12 10:25:54;;;;;;;8.27;6.60;;;;;;;24.61;24.39;99985.41;5040677;28;20565;-67
2022/04/12 10:28:21;;;;;;;7.57;6.43;;;;;;;24.13;24.37;99972.78;5041914;28;20956;-68
2022/04/12 10:30:49;;;;;;;9.40;6.83;;;;;;;24.50;24.21;99983.50;5041636;28;20580;-67
2022/04/12 10:33:25;;;;;;;8.60;6.63;;;;;;;25.00;23.85;99974.75;5041581;28;20426;-68
2022/04/12 10:36:02;;;;;;;9.13;7.10;;;;;;;24.80;23.82;99981.44;5039784;28;20469;-68
2022/04/12 10:38:38;;;;;;;7.77;6.30;;;;;;;24.62;24.74;99979.69;5041885;28;20495;-67
2022/04/12 10:41:16;;;;;;;8.53;7.30;;;;;;;24.25;24.68;99977.22;5040148;28;20501;-68
2022/04/12 10:43:43;;;;;;;12.60;6.93;;;;;;;23.88;26.30;99968.38;5041410;28;20457;-68
2022/04/12 10:46:15;;;;;;;8.83;7.13;;;;;;;24.29;25.26;99965.81;5052088;28;20484;-67
2022/04/12 10:48:42;;;;;;;8.60;6.80;;;;;;;25.36;25.14;99981.78;5061068;28;21029;-67
2022/04/12 10:51:08;;;;;;;8.37;6.60;;;;;;;24.88;24.25;99965.75;5060186;28;20536;-68
2022/04/12 10:53:55;;;;;;;9.33;6.27;;;;;;;24.54;25.03;99962.84;5060571;28;20464;-68
2022/04/12 10:56:25;;;;;;;7.90;6.47;;;;;;;23.88;25.17;99944.63;5051796;28;20512;-67
2022/04/12 10:58:51;;;;;;;10.43;7.03;;;;;;;23.99;26.18;99944.88;5041561;28;20477;-67
2022/04/12 11:01:30;;;;;;;9.20;6.60;;;;;;;23.54;26.43;99948.09;5040114;28;20477;-68
2022/04/12 11:03:57;;;;;;;9.07;6.80;;;;;;;23.77;27.49;99952.81;5040967;28;20464;-67
2022/04/12 11:06:25;;;;;;;12.40;7.10;;;;;;;22.21;28.79;99932.31;5040302;28;20533;-67
2022/04/12 11:08:53;;;;;;;9.40;7.13;;;;;;;23.01;28.16;99947.78;5040459;28;20454;-67
2022/04/12 11:11:28;;;;;;;8.47;6.27;;;;;;;22.69;28.84;99947.97;5040509;28;20528;-67
2022/04/12 11:13:55;;;;;;;9.67;6.17;;;;;;;23.62;27.87;99953.25;5041184;28;20460;-68
2022/04/12 11:16:26;;;;;;;9.30;6.60;;;;;;;23.02;27.63;99956.78;5039994;28;20473;-68
2022/04/12 11:18:55;;;;;;;11.30;6.37;;;;;;;22.96;27.26;99946.81;5040210;28;20971;-67
2022/04/12 11:21:23;;;;;;;9.57;6.40;;;;;;;23.65;26.93;99937.22;5039041;28;20488;-67
2022/04/12 11:23:51;;;;;;;7.40;6.10;;;;;;;23.80;26.97;99938.66;5040419;28;20438;-68
2022/04/12 11:26:30;;;;;;;9.23;7.43;;;;;;;24.16;27.44;99940.38;5059327;28;20473;-67
2022/04/12 11:28:57;;;;;;;10.20;7.40;;;;;;;24.43;25.22;99926.25;5060481;28;20441;-68
2022/04/12 11:31:23;;;;;;;12.70;7.47;;;;;;;24.53;25.52;99931.06;5058072;28;20585;-67
2022/04/12 11:33:50;;;;;;;8.90;7.00;;;;;;;24.74;25.77;99933.22;5060912;28;20479;-68